createdAt,value
2022-08-28T00:00:40.352Z,18.10
2022-08-28T00:03:07.498Z,18.20
2022-08-28T00:05:35.054Z,18.10
2022-08-28T00:08:02.571Z,18.10
2022-08-28T00:10:30.382Z,18.10
2022-08-28T00:12:58.519Z,18.10
2022-08-28T00:15:32.882Z,18.10
2022-08-28T00:18:00.451Z,18.00
2022-08-28T00:20:28.947Z,18.00
2022-08-28T00:22:56.322Z,17.90
2022-08-28T00:25:26.530Z,17.90
2022-08-28T00:27:57.427Z,17.70
2022-08-28T00:30:44.119Z,17.70
2022-08-28T00:33:14.847Z,17.60
2022-08-28T00:35:43.174Z,17.60
2022-08-28T00:38:11.125Z,17.60
2022-08-28T00:40:38.975Z,17.60
2022-08-28T00:43:07.713Z,17.60
2022-08-28T00:45:39.521Z,17.50
2022-08-28T00:48:06.695Z,17.50
2022-08-28T00:50:57.753Z,17.50
2022-08-28T00:53:32.805Z,17.40
2022-08-28T00:56:05.129Z,17.40
2022-08-28T00:58:41.685Z,17.50
2022-08-28T01:01:08.715Z,17.40
2022-08-28T01:03:37.400Z,17.40
2022-08-28T01:06:05.128Z,17.30
2022-08-28T01:08:33.503Z,17.20
2022-08-28T01:11:04.259Z,17.20
2022-08-28T01:13:32.547Z,17.20
2022-08-28T01:16:00.916Z,17.20
2022-08-28T01:18:28.907Z,17.20
2022-08-28T01:21:24.834Z,17.20
2022-08-28T01:23:53.841Z,17.10
2022-08-28T01:26:21.794Z,17.10
2022-08-28T01:28:48.913Z,17.10
2022-08-28T01:31:17.131Z,17.10
2022-08-28T01:33:45.760Z,17.00
2022-08-28T01:36:13.832Z,17.00
2022-08-28T01:38:42.720Z,16.90
2022-08-28T01:41:11.210Z,17.10
2022-08-28T01:43:40.588Z,17.10
2022-08-28T01:46:10.002Z,17.10
2022-08-28T01:48:39.629Z,17.10
2022-08-28T01:51:07.483Z,17.00
2022-08-28T01:53:34.609Z,17.00
2022-08-28T01:56:04.966Z,17.10
2022-08-28T01:58:37.449Z,17.10
2022-08-28T02:01:10.685Z,17.10
2022-08-28T02:03:38.269Z,16.90
2022-08-28T02:06:06.248Z,16.90
2022-08-28T02:08:33.120Z,16.90
2022-08-28T02:11:00.703Z,16.90
2022-08-28T02:13:27.620Z,16.80
2022-08-28T02:15:54.961Z,16.80
2022-08-28T02:18:21.921Z,16.70
2022-08-28T02:20:48.858Z,16.70
2022-08-28T02:23:15.734Z,16.60
2022-08-28T02:25:42.577Z,16.50
2022-08-28T02:28:09.514Z,16.60
2022-08-28T02:30:37.259Z,16.50
2022-08-28T02:33:04.219Z,16.40
2022-08-28T02:35:31.383Z,16.40
2022-08-28T02:38:00.419Z,16.30
2022-08-28T02:40:27.900Z,16.30
2022-08-28T02:42:54.911Z,16.20
2022-08-28T02:45:21.851Z,16.20
2022-08-28T02:47:51.180Z,16.10
2022-08-28T02:50:19.535Z,16.00
2022-08-28T02:52:46.837Z,16.00
2022-08-28T02:55:17.437Z,15.90
2022-08-28T02:57:46.005Z,15.90
2022-08-28T03:00:19.936Z,15.80
2022-08-28T03:02:47.613Z,15.70
2022-08-28T03:05:16.943Z,15.60
2022-08-28T03:07:43.811Z,15.60
2022-08-28T03:10:11.279Z,15.60
2022-08-28T03:12:38.646Z,15.60
2022-08-28T03:15:07.721Z,15.60
2022-08-28T03:17:36.941Z,15.60
2022-08-28T03:20:09.215Z,15.50
2022-08-28T03:22:55.545Z,15.50
2022-08-28T03:25:23.314Z,15.60
2022-08-28T03:27:50.678Z,15.50
2022-08-28T03:30:18.946Z,15.40
2022-08-28T03:32:45.831Z,15.40
2022-08-28T03:35:13.122Z,15.30
2022-08-28T03:37:40.100Z,15.30
2022-08-28T03:40:08.788Z,15.30
2022-08-28T03:42:35.792Z,15.30
2022-08-28T03:45:02.703Z,15.20
2022-08-28T03:47:29.735Z,15.30
2022-08-28T03:49:57.878Z,15.30
2022-08-28T03:52:25.673Z,15.20
2022-08-28T03:54:52.786Z,15.20
2022-08-28T03:57:21.419Z,15.20
2022-08-28T03:59:53.306Z,15.30
2022-08-28T04:02:20.658Z,15.30
2022-08-28T04:04:50.802Z,15.30
2022-08-28T04:07:19.703Z,15.30
2022-08-28T04:09:46.890Z,15.20
2022-08-28T04:12:14.500Z,15.20
2022-08-28T04:14:41.622Z,15.10
2022-08-28T04:17:08.925Z,15.10
2022-08-28T04:19:36.072Z,15.10
2022-08-28T04:22:02.946Z,15.10
2022-08-28T04:24:29.900Z,15.10
2022-08-28T04:26:56.835Z,15.00
2022-08-28T04:29:23.817Z,15.00
2022-08-28T04:31:50.864Z,15.00
2022-08-28T04:34:18.194Z,15.00
2022-08-28T04:36:46.100Z,15.00
2022-08-28T04:39:13.276Z,14.90
2022-08-28T04:41:40.582Z,14.90
2022-08-28T04:44:08.205Z,14.80
2022-08-28T04:46:35.291Z,14.80
2022-08-28T04:49:04.463Z,14.80
2022-08-28T04:51:32.271Z,14.80
2022-08-28T04:53:59.334Z,14.80
2022-08-28T04:56:26.672Z,14.80
2022-08-28T04:58:53.810Z,14.70
2022-08-28T05:01:24.725Z,14.70
2022-08-28T05:03:56.073Z,14.60
2022-08-28T05:06:26.750Z,14.60
2022-08-28T05:08:57.047Z,14.60
2022-08-28T05:11:34.555Z,14.60
2022-08-28T05:14:07.505Z,14.60
2022-08-28T05:16:44.386Z,14.70
2022-08-28T05:19:11.883Z,14.80
2022-08-28T05:21:39.225Z,14.80
2022-08-28T05:24:07.504Z,14.90
2022-08-28T05:26:35.029Z,14.90
2022-08-28T05:29:01.953Z,15.00
2022-08-28T05:31:31.084Z,15.00
2022-08-28T05:33:59.446Z,15.10
2022-08-28T05:36:29.130Z,15.20
2022-08-28T05:39:00.355Z,15.30
2022-08-28T05:41:30.785Z,15.50
2022-08-28T05:43:59.250Z,15.60
2022-08-28T05:46:28.161Z,15.70
2022-08-28T05:48:56.065Z,15.90
2022-08-28T05:51:24.779Z,16.20
2022-08-28T05:53:51.603Z,16.70
2022-08-28T05:56:22.163Z,17.30
2022-08-28T05:58:49.184Z,18.30
2022-08-28T06:01:17.740Z,19.10
2022-08-28T06:03:47.523Z,19.80
2022-08-28T06:06:14.477Z,20.30
2022-08-28T06:08:58.104Z,20.40
2022-08-28T06:11:26.990Z,21.00
2022-08-28T06:13:57.532Z,21.50
2022-08-28T06:16:24.467Z,21.70
2022-08-28T06:18:51.551Z,22.20
2022-08-28T06:21:18.399Z,22.50
2022-08-28T06:23:45.879Z,22.30
2022-08-28T06:26:12.762Z,22.90
2022-08-28T06:28:39.636Z,23.40
2022-08-28T06:31:23.999Z,23.70
2022-08-28T06:33:54.163Z,23.40
2022-08-28T06:36:21.999Z,23.20
2022-08-28T06:38:51.647Z,23.40
2022-08-28T06:41:19.281Z,23.40
2022-08-28T06:43:46.194Z,23.50
2022-08-28T06:46:13.328Z,24.30
2022-08-28T06:48:40.444Z,24.70
2022-08-28T06:51:09.754Z,24.40
2022-08-28T06:53:37.873Z,24.30
2022-08-28T06:56:08.479Z,24.30
2022-08-28T06:58:38.129Z,24.20
2022-08-28T07:01:14.307Z,23.60
2022-08-28T07:03:42.760Z,23.50
2022-08-28T07:06:13.858Z,23.50
2022-08-28T07:08:42.672Z,23.60
2022-08-28T07:11:15.756Z,23.70
2022-08-28T07:13:43.336Z,24.10
2022-08-28T07:16:10.795Z,24.50
2022-08-28T07:18:38.237Z,24.60
2022-08-28T07:21:11.621Z,25.40
2022-08-28T07:23:40.842Z,25.20
2022-08-28T07:26:12.609Z,25.10
2022-08-28T07:28:39.522Z,24.80
2022-08-28T07:31:11.610Z,24.60
2022-08-28T07:33:39.695Z,25.10
2022-08-28T07:36:08.788Z,25.10
2022-08-28T07:38:43.522Z,24.70
2022-08-28T07:41:16.012Z,24.10
2022-08-28T07:44:01.813Z,23.80
2022-08-28T07:46:29.287Z,24.20
2022-08-28T07:48:58.805Z,25.10
2022-08-28T07:51:26.937Z,24.20
2022-08-28T07:53:54.666Z,23.70
2022-08-28T07:56:21.652Z,23.10
2022-08-28T07:58:48.682Z,22.40
2022-08-28T08:01:17.493Z,22.00
2022-08-28T08:03:45.241Z,22.10
2022-08-28T08:06:13.345Z,22.20
2022-08-28T08:08:41.114Z,21.90
2022-08-28T08:11:11.327Z,21.80
2022-08-28T08:13:45.301Z,22.00
2022-08-28T08:16:17.342Z,22.70
2022-08-28T08:18:44.307Z,22.80
2022-08-28T08:21:13.889Z,22.20
2022-08-28T08:23:41.673Z,22.00
2022-08-28T08:26:12.353Z,22.20
2022-08-28T08:28:40.841Z,22.40
2022-08-28T08:31:13.802Z,22.90
2022-08-28T08:33:43.794Z,23.10
2022-08-28T08:36:12.781Z,22.60
2022-08-28T08:38:39.665Z,22.40
2022-08-28T08:41:29.330Z,22.70
2022-08-28T08:44:05.548Z,22.70
2022-08-28T08:46:36.854Z,22.90
2022-08-28T08:49:13.670Z,23.70
2022-08-28T08:51:54.680Z,23.60
2022-08-28T08:54:22.217Z,23.30
2022-08-28T08:56:51.653Z,23.00
2022-08-28T08:59:22.338Z,22.80
2022-08-28T09:02:12.219Z,23.10
2022-08-28T09:04:55.182Z,23.00
2022-08-28T09:07:37.991Z,22.70
2022-08-28T09:10:07.894Z,22.30
2022-08-28T09:13:00.864Z,22.40
2022-08-28T09:15:35.612Z,22.50
2022-08-28T09:18:23.662Z,22.10
2022-08-28T09:20:56.175Z,21.90
2022-08-28T09:23:24.669Z,21.70
2022-08-28T09:26:02.860Z,21.70
2022-08-28T09:28:31.722Z,21.60
2022-08-28T09:31:06.276Z,21.30
2022-08-28T09:33:43.369Z,21.00
2022-08-28T09:36:42.806Z,21.00
2022-08-28T09:39:20.387Z,20.80
2022-08-28T09:42:08.423Z,20.80
2022-08-28T09:44:51.961Z,20.80
2022-08-28T09:47:48.922Z,20.60
2022-08-28T09:50:27.039Z,20.40
2022-08-28T09:52:57.520Z,20.40
2022-08-28T09:55:45.940Z,20.30
2022-08-28T09:58:13.941Z,20.40
2022-08-28T10:01:07.290Z,20.60
2022-08-28T10:03:45.813Z,20.60
2022-08-28T10:06:25.100Z,20.60
2022-08-28T10:09:20.779Z,20.30
2022-08-28T10:12:15.941Z,20.40
2022-08-28T10:15:06.771Z,20.50
2022-08-28T10:17:39.203Z,20.70
2022-08-28T10:20:35.510Z,20.80
2022-08-28T10:23:11.011Z,20.90
2022-08-28T10:25:54.368Z,21.00
2022-08-28T10:28:35.944Z,21.00
2022-08-28T10:31:21.655Z,21.00
2022-08-28T10:34:12.666Z,20.90
2022-08-28T10:36:39.579Z,20.80
2022-08-28T10:39:17.579Z,21.00
2022-08-28T10:41:54.821Z,21.00
2022-08-28T10:44:43.961Z,21.10
2022-08-28T10:47:13.009Z,21.00
2022-08-28T10:49:42.371Z,21.10
2022-08-28T10:52:15.470Z,21.20
2022-08-28T10:54:48.309Z,21.10
2022-08-28T10:57:39.731Z,21.00
2022-08-28T11:00:18.580Z,21.10
2022-08-28T11:02:50.572Z,21.10
2022-08-28T11:05:27.605Z,21.20
2022-08-28T11:08:02.230Z,21.20
2022-08-28T11:10:35.275Z,21.10
2022-08-28T11:13:04.899Z,21.00
2022-08-28T11:15:37.182Z,21.20
2022-08-28T11:18:16.411Z,21.30
2022-08-28T11:21:03.997Z,21.40
2022-08-28T11:23:59.783Z,21.30
2022-08-28T11:26:39.708Z,21.20
2022-08-28T11:29:06.798Z,21.40
2022-08-28T11:31:37.487Z,21.40
2022-08-28T11:34:05.668Z,21.50
2022-08-28T11:36:32.772Z,21.40
2022-08-28T11:39:01.650Z,21.60
2022-08-28T11:41:36.609Z,21.60
2022-08-28T11:44:09.646Z,21.70
2022-08-28T11:46:42.057Z,21.90
2022-08-28T11:49:24.570Z,22.20
2022-08-28T11:51:57.333Z,22.20
2022-08-28T11:55:02.041Z,22.00
2022-08-28T12:00:59.953Z,22.10
2022-08-28T12:03:40.389Z,22.10
2022-08-28T12:06:08.739Z,22.00
2022-08-28T12:08:44.797Z,21.90
2022-08-28T12:11:40.560Z,21.80
2022-08-28T12:14:26.318Z,21.80
2022-08-28T12:16:59.076Z,22.00
2022-08-28T12:19:55.535Z,22.00
2022-08-28T12:22:26.367Z,22.30
2022-08-28T12:24:59.128Z,22.40
2022-08-28T12:27:26.897Z,22.30
2022-08-28T12:29:56.360Z,22.30
2022-08-28T12:32:44.839Z,22.30
2022-08-28T12:35:27.476Z,22.40
2022-08-28T12:37:56.019Z,22.30
2022-08-28T12:40:38.197Z,22.20
2022-08-28T12:43:11.033Z,22.20
2022-08-28T12:46:06.991Z,22.40
2022-08-28T12:48:54.635Z,22.50
2022-08-28T12:51:27.114Z,22.40
2022-08-28T12:53:57.618Z,22.30
2022-08-28T12:56:26.651Z,22.30
2022-08-28T12:58:53.524Z,22.40
2022-08-28T13:01:33.420Z,22.40
2022-08-28T13:04:22.438Z,22.40
2022-08-28T13:06:57.418Z,22.40
2022-08-28T13:09:27.285Z,22.40
2022-08-28T13:11:54.227Z,22.40
2022-08-28T13:14:46.136Z,22.50
2022-08-28T13:17:15.214Z,22.50
2022-08-28T13:20:01.469Z,22.60
2022-08-28T13:22:32.974Z,22.60
2022-08-28T13:25:01.441Z,22.50
2022-08-28T13:27:29.119Z,22.50
2022-08-28T13:30:08.165Z,22.50
2022-08-28T13:32:39.118Z,22.50
2022-08-28T13:35:13.566Z,22.60
2022-08-28T13:37:47.969Z,22.60
2022-08-28T13:40:45.904Z,22.70
2022-08-28T13:43:11.652Z,22.70
2022-08-28T13:45:42.896Z,22.70
2022-08-28T13:48:17.468Z,22.60
2022-08-28T13:50:47.646Z,22.50
2022-08-28T13:53:18.407Z,22.40
2022-08-28T13:55:46.221Z,22.40
2022-08-28T13:58:14.068Z,22.30
2022-08-28T14:00:47.673Z,22.40
2022-08-28T14:03:33.602Z,22.50
2022-08-28T14:06:00.664Z,22.30
2022-08-28T14:08:27.485Z,22.30
2022-08-28T14:10:54.404Z,22.40
2022-08-28T14:13:23.316Z,22.30
2022-08-28T14:15:50.224Z,22.30
2022-08-28T14:18:18.148Z,22.40
2022-08-28T14:20:45.211Z,22.40
2022-08-28T14:23:12.440Z,22.50
2022-08-28T14:25:44.865Z,22.50
2022-08-28T14:37:34.372Z,22.70
2022-08-28T14:40:01.403Z,22.60
2022-08-28T14:42:28.616Z,22.50
2022-08-28T14:44:55.545Z,22.60
2022-08-28T14:47:22.389Z,22.60
2022-08-28T14:49:49.341Z,22.70
2022-08-28T14:52:16.293Z,22.80
2022-08-28T14:54:43.448Z,22.70
2022-08-28T14:57:11.931Z,22.60
2022-08-28T14:59:39.196Z,22.50
2022-08-28T15:02:06.277Z,22.40
2022-08-28T15:04:35.369Z,22.40
2022-08-28T15:07:06.487Z,22.40
2022-08-28T15:09:36.861Z,22.50
2022-08-28T15:12:04.337Z,22.60
2022-08-28T15:14:31.422Z,22.70
2022-08-28T15:16:58.474Z,22.90
2022-08-28T15:19:25.500Z,22.90
2022-08-28T15:21:54.931Z,22.70
2022-08-28T15:24:28.498Z,22.50
2022-08-28T15:26:56.942Z,22.40
2022-08-28T15:29:23.991Z,22.30
2022-08-28T15:31:54.171Z,22.40
2022-08-28T15:34:23.964Z,22.50
2022-08-28T15:36:55.054Z,22.50
2022-08-28T15:39:43.600Z,22.40
2022-08-28T15:42:11.490Z,22.50
2022-08-28T15:44:39.009Z,22.50
2022-08-28T15:47:06.340Z,22.50
2022-08-28T15:49:37.533Z,22.50
2022-08-28T15:52:11.175Z,22.60
2022-08-28T15:54:38.307Z,22.50
2022-08-28T15:57:05.205Z,22.50
2022-08-28T15:59:38.057Z,22.40
2022-08-28T16:02:16.476Z,22.30
2022-08-28T16:04:43.446Z,22.30
2022-08-28T16:07:11.119Z,22.30
2022-08-28T16:09:38.158Z,22.30
2022-08-28T16:12:05.214Z,22.30
2022-08-28T16:14:33.053Z,22.30
2022-08-28T16:17:05.723Z,22.20
2022-08-28T16:19:38.154Z,22.20
2022-08-28T16:22:05.106Z,22.20
2022-08-28T16:24:31.920Z,22.20
2022-08-28T16:26:58.763Z,22.10
2022-08-28T16:29:26.353Z,22.10
2022-08-28T16:31:53.325Z,22.00
2022-08-28T16:34:20.214Z,22.00
2022-08-28T16:36:48.254Z,22.00
2022-08-28T16:39:15.277Z,22.00
2022-08-28T16:41:43.235Z,22.00
2022-08-28T16:44:10.125Z,22.00
2022-08-28T16:46:37.065Z,22.00
2022-08-28T16:49:04.035Z,21.90
2022-08-28T16:51:30.908Z,21.90
2022-08-28T16:53:58.385Z,21.90
2022-08-28T16:56:26.564Z,21.90
2022-08-28T16:58:53.959Z,21.80
2022-08-28T17:01:24.123Z,21.80
2022-08-28T17:03:52.549Z,21.80
2022-08-28T17:06:25.809Z,21.80
2022-08-28T17:08:56.595Z,21.70
2022-08-28T17:11:26.012Z,21.60
2022-08-28T17:13:53.682Z,21.60
2022-08-28T17:16:22.041Z,21.50
2022-08-28T17:18:52.718Z,21.50
2022-08-28T17:21:40.278Z,21.40
2022-08-28T17:24:08.454Z,21.50
2022-08-28T17:26:35.364Z,21.40
2022-08-28T17:29:02.912Z,21.30
2022-08-28T17:31:30.005Z,21.30
2022-08-28T17:33:57.227Z,21.30
2022-08-28T17:36:33.177Z,21.30
2022-08-28T17:39:03.442Z,21.20
2022-08-28T17:41:30.347Z,21.10
2022-08-28T17:43:57.342Z,21.00
2022-08-28T17:46:24.225Z,21.00
2022-08-28T17:48:55.766Z,21.10
2022-08-28T17:51:33.767Z,21.10
2022-08-28T17:54:11.251Z,20.90
2022-08-28T17:56:38.165Z,20.90
2022-08-28T17:59:05.575Z,20.80
2022-08-28T18:01:32.438Z,20.70
2022-08-28T18:03:59.312Z,20.70
2022-08-28T18:06:26.334Z,20.60
2022-08-28T18:08:53.609Z,20.50
2022-08-28T18:11:20.483Z,20.50
2022-08-28T18:13:47.754Z,20.40
2022-08-28T18:16:14.691Z,20.30
2022-08-28T18:18:42.172Z,20.20
2022-08-28T18:21:13.583Z,20.10
2022-08-28T18:23:40.685Z,20.10
2022-08-28T18:26:08.633Z,20.00
2022-08-28T18:28:36.298Z,19.90
2022-08-28T18:31:05.736Z,19.80
2022-08-28T18:33:33.465Z,19.80
2022-08-28T18:36:00.454Z,19.80
2022-08-28T18:38:35.000Z,19.70
2022-08-28T18:41:03.714Z,19.70
2022-08-28T18:43:31.064Z,19.60
2022-08-28T18:46:00.865Z,19.60
2022-08-28T18:48:28.445Z,19.50
2022-08-28T18:50:55.280Z,19.40
2022-08-28T18:53:23.859Z,19.40
2022-08-28T18:55:52.681Z,19.40
2022-08-28T18:58:20.237Z,19.30
2022-08-28T19:00:47.153Z,19.20
2022-08-28T19:03:14.713Z,19.10
2022-08-28T19:05:42.076Z,19.10
2022-08-28T19:08:09.178Z,19.10
2022-08-28T19:10:37.817Z,19.00
2022-08-28T19:13:06.345Z,18.90
2022-08-28T19:15:34.232Z,18.90
2022-08-28T19:18:01.457Z,18.80
2022-08-28T19:20:29.609Z,18.80
2022-08-28T19:22:57.714Z,18.70
2022-08-28T19:25:28.490Z,18.70
2022-08-28T19:28:01.596Z,18.70
2022-08-28T19:30:32.979Z,18.70
2022-08-28T19:33:01.635Z,18.50
2022-08-28T19:35:28.480Z,18.50
2022-08-28T19:37:55.703Z,18.50
2022-08-28T19:40:23.291Z,18.50
2022-08-28T19:42:51.320Z,18.40
2022-08-28T19:45:18.807Z,18.40
2022-08-28T19:47:47.029Z,18.40
2022-08-28T19:50:14.685Z,18.30
2022-08-28T19:52:43.510Z,18.30
2022-08-28T19:55:18.253Z,18.30
2022-08-28T19:57:49.373Z,18.30
2022-08-28T20:00:23.766Z,18.10
2022-08-28T20:02:52.499Z,18.10
2022-08-28T20:05:21.424Z,18.10
2022-08-28T20:07:48.423Z,18.10
2022-08-28T20:10:16.624Z,18.00
2022-08-28T20:12:48.474Z,18.00
2022-08-28T20:15:17.298Z,18.00
2022-08-28T20:17:49.946Z,18.00
2022-08-28T20:20:24.575Z,17.90
2022-08-28T20:22:54.115Z,17.90
2022-08-28T20:25:21.649Z,17.80
2022-08-28T20:27:48.796Z,17.70
2022-08-28T20:30:15.845Z,17.70
2022-08-28T20:32:43.008Z,17.70
2022-08-28T20:35:24.564Z,17.70
2022-08-28T20:37:54.553Z,17.60
2022-08-28T20:40:21.886Z,17.60
2022-08-28T20:42:49.324Z,17.50
2022-08-28T20:45:18.371Z,17.50
2022-08-28T20:47:46.141Z,17.40
2022-08-28T20:50:14.083Z,17.50
2022-08-28T20:52:41.295Z,17.40
2022-08-28T20:55:09.530Z,17.30
2022-08-28T20:57:36.969Z,17.20
2022-08-28T21:00:08.989Z,17.10
2022-08-28T21:02:37.304Z,17.00
2022-08-28T21:05:05.080Z,17.00
2022-08-28T21:07:34.129Z,17.00
2022-08-28T21:10:01.595Z,17.00
2022-08-28T21:12:31.740Z,16.90
2022-08-28T21:14:59.009Z,16.90
2022-08-28T21:17:29.295Z,17.00
2022-08-28T21:20:10.977Z,16.90
2022-08-28T21:22:39.179Z,16.90
2022-08-28T21:25:08.153Z,16.80
2022-08-28T21:27:35.746Z,16.80
2022-08-28T21:30:04.294Z,16.70
2022-08-28T21:32:32.744Z,16.70
2022-08-28T21:35:01.244Z,16.60
2022-08-28T21:37:28.547Z,16.60
2022-08-28T21:39:56.471Z,16.60
2022-08-28T21:42:24.046Z,16.60
2022-08-28T21:44:51.898Z,16.50
2022-08-28T21:47:22.964Z,16.50
2022-08-28T21:49:52.186Z,16.50
2022-08-28T21:52:21.070Z,16.40
2022-08-28T21:54:48.693Z,16.40
2022-08-28T21:57:16.622Z,16.30
2022-08-28T21:59:43.564Z,16.30
2022-08-28T22:02:10.529Z,16.30
2022-08-28T22:04:37.511Z,16.20
2022-08-28T22:07:04.414Z,16.20
2022-08-28T22:09:31.455Z,16.10
2022-08-28T22:11:58.417Z,16.10
2022-08-28T22:14:26.160Z,16.20
2022-08-28T22:16:53.145Z,16.20
2022-08-28T22:19:20.060Z,16.10
2022-08-28T22:22:05.771Z,16.00
2022-08-28T22:24:33.102Z,15.90
2022-08-28T22:27:00.186Z,15.90
2022-08-28T22:29:27.261Z,15.90
2022-08-28T22:31:54.209Z,15.80
2022-08-28T22:34:21.194Z,15.80
2022-08-28T22:36:48.089Z,15.70
2022-08-28T22:39:14.922Z,15.70
2022-08-28T22:41:42.173Z,15.70
2022-08-28T22:44:09.179Z,15.70
2022-08-28T22:46:36.481Z,15.70
2022-08-28T22:49:04.069Z,15.60
2022-08-28T22:51:34.812Z,15.60
2022-08-28T22:54:02.115Z,15.60
2022-08-28T22:56:29.122Z,15.60
2022-08-28T22:58:56.043Z,15.50
2022-08-28T23:01:25.635Z,15.40
2022-08-28T23:03:52.673Z,15.40
2022-08-28T23:06:21.471Z,15.50
2022-08-28T23:08:48.391Z,15.40
2022-08-28T23:11:15.473Z,15.40
2022-08-28T23:13:42.394Z,15.40
2022-08-28T23:16:09.596Z,15.30
2022-08-28T23:19:06.073Z,15.30
2022-08-28T23:21:28.704Z,15.20
2022-08-28T23:23:55.998Z,15.20
2022-08-28T23:26:24.043Z,15.10
2022-08-28T23:28:51.371Z,15.10
2022-08-28T23:31:18.584Z,15.10
2022-08-28T23:33:46.358Z,15.10
2022-08-28T23:36:14.869Z,15.10
2022-08-28T23:38:43.206Z,15.00
2022-08-28T23:41:11.414Z,15.00
2022-08-28T23:43:38.637Z,15.00
2022-08-28T23:46:06.625Z,14.90
2022-08-28T23:48:33.674Z,14.80
2022-08-28T23:51:02.203Z,14.80
2022-08-28T23:53:29.776Z,14.80
2022-08-28T23:55:59.630Z,14.80
2022-08-28T23:58:31.846Z,14.80
